createdAt,value
2023-08-10T00:00:00.063Z,143.12
2023-08-10T00:00:55.233Z,143.86
2023-08-10T00:01:50.470Z,145.36
2023-08-10T00:02:45.799Z,143.36
2023-08-10T00:03:40.819Z,142.14
2023-08-10T00:04:35.796Z,142.02
2023-08-10T00:05:30.818Z,140.23
2023-08-10T00:06:26.029Z,138.37
2023-08-10T00:07:21.142Z,138.95
2023-08-10T00:08:16.292Z,137.23
2023-08-10T00:09:11.271Z,135.89
2023-08-10T00:10:06.381Z,136.56
2023-08-10T00:11:01.481Z,136.67
2023-08-10T00:11:56.535Z,135.23
2023-08-10T00:12:51.768Z,135.34
2023-08-10T00:13:46.780Z,134.58
2023-08-10T00:14:41.753Z,133.93
2023-08-10T00:15:36.878Z,134.14
2023-08-10T00:16:32.044Z,134.79
2023-08-10T00:17:27.129Z,134.58
2023-08-10T00:18:22.080Z,134.79
2023-08-10T00:19:17.091Z,136.90
2023-08-10T00:20:12.158Z,138.83
2023-08-10T00:21:07.339Z,141.18
2023-08-10T00:22:02.459Z,146.38
2023-08-10T00:22:57.650Z,150.07
2023-08-10T00:23:52.866Z,152.68
2023-08-10T00:24:48.565Z,154.09
2023-08-10T00:25:43.766Z,154.23
2023-08-10T00:26:39.052Z,155.38
2023-08-10T00:27:34.321Z,156.84
2023-08-10T00:28:30.324Z,157.28
2023-08-10T00:29:25.300Z,159.08
2023-08-10T00:30:20.587Z,158.63
2023-08-10T00:31:16.435Z,160.92
2023-08-10T00:32:11.679Z,161.86
2023-08-10T00:33:08.977Z,163.60
2023-08-10T00:34:03.184Z,166.04
2023-08-10T00:34:58.426Z,168.56
2023-08-10T00:35:54.282Z,167.04
2023-08-10T00:36:49.497Z,168.05
2023-08-10T00:37:44.915Z,171.33
2023-08-10T00:38:40.759Z,174.01
2023-08-10T00:39:35.882Z,173.11
2023-08-10T00:40:31.689Z,169.42
2023-08-10T00:41:26.920Z,171.51
2023-08-10T00:42:22.313Z,172.04
2023-08-10T00:43:18.186Z,172.04
2023-08-10T00:44:13.167Z,171.15
2023-08-10T00:45:08.433Z,170.63
2023-08-10T00:46:04.680Z,172.57
2023-08-10T00:46:59.977Z,176.21
2023-08-10T00:47:55.817Z,177.53
2023-08-10T00:48:51.207Z,178.86
2023-08-10T00:49:46.205Z,180.02
2023-08-10T00:50:42.009Z,181.19
2023-08-10T00:51:37.289Z,182.58
2023-08-10T00:52:33.110Z,180.99
2023-08-10T00:53:28.486Z,177.90
2023-08-10T00:54:23.652Z,180.02
2023-08-10T00:55:19.462Z,180.60
2023-08-10T00:56:14.738Z,181.19
2023-08-10T00:57:09.965Z,180.99
2023-08-10T00:58:06.335Z,180.21
2023-08-10T00:59:01.765Z,182.38
2023-08-10T00:59:57.486Z,183.99
2023-08-10T01:00:52.577Z,184.19
2023-08-10T01:01:47.959Z,185.94
2023-08-10T01:02:43.678Z,188.29
2023-08-10T01:03:39.226Z,190.36
2023-08-10T01:04:34.914Z,192.03
2023-08-10T01:05:30.094Z,190.91
2023-08-10T01:06:25.335Z,194.19
2023-08-10T01:07:21.179Z,194.65
2023-08-10T01:08:16.399Z,198.18
2023-08-10T01:09:11.843Z,197.11
2023-08-10T01:10:07.797Z,195.00
2023-08-10T01:11:03.078Z,195.35
2023-08-10T01:11:58.899Z,194.77
2023-08-10T01:12:54.151Z,197.94
2023-08-10T01:13:49.674Z,191.92
2023-08-10T01:14:45.240Z,188.61
2023-08-10T01:15:40.552Z,186.15
2023-08-10T01:16:39.122Z,180.99
2023-08-10T01:17:31.626Z,179.63
2023-08-10T01:18:27.102Z,178.29
2023-08-10T01:19:22.260Z,175.84
2023-08-10T01:20:18.192Z,175.66
2023-08-10T01:21:13.309Z,177.34
2023-08-10T01:22:08.710Z,178.48
2023-08-10T01:23:04.542Z,178.67
2023-08-10T01:23:59.793Z,179.63
2023-08-10T01:24:55.345Z,180.60
2023-08-10T01:25:51.369Z,180.02
2023-08-10T01:26:46.583Z,177.72
2023-08-10T01:27:42.439Z,180.60
2023-08-10T01:28:37.669Z,178.48
2023-08-10T01:29:33.381Z,178.29
2023-08-10T01:30:28.231Z,179.05
2023-08-10T01:31:23.601Z,178.29
2023-08-10T01:32:19.354Z,174.55
2023-08-10T01:33:14.730Z,176.03
2023-08-10T01:34:09.977Z,177.53
2023-08-10T01:35:06.357Z,176.21
2023-08-10T01:36:01.600Z,173.47
2023-08-10T01:36:57.458Z,174.92
2023-08-10T01:37:52.669Z,176.77
2023-08-10T01:38:48.124Z,175.84
2023-08-10T01:39:43.951Z,174.92
2023-08-10T01:40:39.086Z,174.92
2023-08-10T01:41:34.900Z,174.01
2023-08-10T01:42:30.153Z,175.47
2023-08-10T01:43:25.528Z,174.74
2023-08-10T01:44:21.236Z,173.83
2023-08-10T01:45:16.617Z,175.84
2023-08-10T01:46:11.655Z,175.29
2023-08-10T01:47:06.826Z,175.10
2023-08-10T01:48:02.295Z,174.74
2023-08-10T01:48:57.325Z,172.93
2023-08-10T01:49:52.475Z,173.65
2023-08-10T01:50:47.333Z,174.92
2023-08-10T01:51:42.317Z,173.83
2023-08-10T01:52:37.396Z,175.29
2023-08-10T01:53:32.372Z,173.83
2023-08-10T01:54:27.480Z,171.51
2023-08-10T01:55:22.677Z,170.46
2023-08-10T01:56:17.535Z,170.63
2023-08-10T01:57:12.537Z,170.46
2023-08-10T01:58:07.719Z,171.15
2023-08-10T01:59:02.633Z,167.88
2023-08-10T01:59:57.768Z,170.63
2023-08-10T02:00:52.775Z,172.93
2023-08-10T02:01:47.855Z,173.47
2023-08-10T02:02:43.000Z,173.11
2023-08-10T02:03:38.180Z,173.83
2023-08-10T02:04:33.074Z,175.47
2023-08-10T02:05:28.282Z,172.75
2023-08-10T02:06:23.170Z,173.65
2023-08-10T02:07:18.305Z,174.55
2023-08-10T02:08:13.829Z,174.37
2023-08-10T02:09:09.088Z,173.47
2023-08-10T02:10:04.318Z,172.21
2023-08-10T02:11:00.330Z,171.86
2023-08-10T02:11:55.445Z,172.75
2023-08-10T02:12:51.394Z,174.74
2023-08-10T02:13:46.492Z,174.55
2023-08-10T02:14:41.913Z,172.75
2023-08-10T02:15:37.797Z,173.65
2023-08-10T02:16:33.211Z,174.92
2023-08-10T02:17:28.486Z,174.37
2023-08-10T02:18:24.851Z,173.47
2023-08-10T02:19:20.093Z,169.24
2023-08-10T02:20:15.987Z,167.71
2023-08-10T02:21:11.043Z,170.46
2023-08-10T02:22:07.029Z,169.93
2023-08-10T02:23:02.086Z,170.98
2023-08-10T02:23:57.367Z,167.71
2023-08-10T02:24:53.129Z,169.42
2023-08-10T02:25:48.362Z,167.04
2023-08-10T02:26:43.902Z,167.71
2023-08-10T02:27:39.480Z,169.59
2023-08-10T02:28:34.710Z,168.90
2023-08-10T02:29:30.014Z,167.38
2023-08-10T02:30:26.087Z,169.07
2023-08-10T02:31:21.426Z,168.90
2023-08-10T02:32:17.204Z,166.38
2023-08-10T02:33:12.443Z,165.06
2023-08-10T02:34:07.592Z,163.60
2023-08-10T02:35:03.406Z,165.71
2023-08-10T02:35:58.686Z,167.04
2023-08-10T02:36:54.677Z,164.41
2023-08-10T02:37:49.623Z,166.71
2023-08-10T02:38:44.993Z,167.38
2023-08-10T02:39:40.648Z,164.57
2023-08-10T02:40:35.947Z,164.41
2023-08-10T02:41:31.146Z,168.90
2023-08-10T02:42:27.731Z,167.38
2023-08-10T02:43:22.771Z,165.88
2023-08-10T02:44:18.529Z,163.12
2023-08-10T02:45:13.631Z,166.21
2023-08-10T02:46:08.950Z,167.54
2023-08-10T02:47:04.766Z,166.21
2023-08-10T02:48:00.080Z,167.71
2023-08-10T02:48:55.916Z,167.54
2023-08-10T02:49:51.054Z,166.04
2023-08-10T02:50:46.492Z,169.76
2023-08-10T02:51:42.342Z,169.59
2023-08-10T02:52:37.624Z,168.22
2023-08-10T02:53:32.913Z,166.54
2023-08-10T02:54:29.249Z,166.21
2023-08-10T02:55:24.535Z,167.21
2023-08-10T02:56:20.348Z,166.04
2023-08-10T02:57:15.610Z,167.54
2023-08-10T02:58:11.131Z,165.71
2023-08-10T02:59:06.715Z,169.59
2023-08-10T03:00:01.962Z,167.88
2023-08-10T03:00:57.855Z,167.88
2023-08-10T03:01:52.941Z,168.56
2023-08-10T03:02:48.536Z,166.04
2023-08-10T03:03:43.942Z,169.07
2023-08-10T03:04:39.253Z,166.88
2023-08-10T03:05:34.345Z,167.04
2023-08-10T03:06:30.830Z,168.05
2023-08-10T03:07:26.097Z,164.90
2023-08-10T03:08:21.209Z,166.88
2023-08-10T03:09:16.315Z,167.71
2023-08-10T03:10:12.170Z,169.76
2023-08-10T03:11:07.443Z,168.56
2023-08-10T03:12:03.583Z,166.54
2023-08-10T03:12:58.623Z,166.21
2023-08-10T03:13:53.738Z,167.88
2023-08-10T03:14:49.719Z,165.71
2023-08-10T03:15:45.020Z,167.04
2023-08-10T03:16:40.293Z,169.42
2023-08-10T03:17:36.793Z,170.11
2023-08-10T03:18:31.869Z,174.74
2023-08-10T03:19:27.737Z,173.11
2023-08-10T03:20:22.947Z,171.86
2023-08-10T03:21:18.362Z,175.29
2023-08-10T03:22:13.957Z,156.69
2023-08-10T03:23:09.267Z,145.87
2023-08-10T03:24:04.374Z,148.20
2023-08-10T03:24:59.608Z,151.29
2023-08-10T03:25:54.947Z,156.10
2023-08-10T03:26:50.092Z,158.18
2023-08-10T03:27:45.205Z,161.08
2023-08-10T03:28:40.425Z,165.39
2023-08-10T03:29:35.264Z,168.56
2023-08-10T03:30:30.435Z,166.21
2023-08-10T03:31:25.558Z,168.73
2023-08-10T03:32:20.728Z,166.04
2023-08-10T03:33:15.737Z,166.54
2023-08-10T03:34:10.773Z,164.57
2023-08-10T03:35:05.755Z,164.90
2023-08-10T03:36:00.912Z,166.21
2023-08-10T03:36:55.875Z,165.22
2023-08-10T03:37:50.951Z,162.49
2023-08-10T03:38:46.084Z,166.88
2023-08-10T03:39:40.973Z,165.39
2023-08-10T03:40:36.022Z,167.21
2023-08-10T03:41:31.155Z,167.54
2023-08-10T03:42:26.129Z,170.46
2023-08-10T03:43:21.303Z,170.63
2023-08-10T03:44:16.300Z,174.19
2023-08-10T03:45:11.310Z,174.37
2023-08-10T03:46:06.335Z,176.21
2023-08-10T03:47:01.393Z,177.34
2023-08-10T03:47:56.436Z,172.57
2023-08-10T03:48:51.666Z,169.07
2023-08-10T03:49:46.577Z,169.93
2023-08-10T03:50:41.623Z,170.28
2023-08-10T03:51:36.655Z,169.42
2023-08-10T03:52:31.674Z,170.28
2023-08-10T03:53:26.690Z,170.46
2023-08-10T03:54:21.752Z,172.21
2023-08-10T03:55:16.760Z,177.15
2023-08-10T03:56:11.832Z,175.84
2023-08-10T03:57:06.894Z,178.10
2023-08-10T03:58:02.878Z,177.34
2023-08-10T03:58:58.057Z,179.43
2023-08-10T03:59:52.938Z,180.21
2023-08-10T04:00:48.181Z,180.40
2023-08-10T04:01:43.243Z,180.21
2023-08-10T04:02:38.340Z,180.40
2023-08-10T04:03:33.696Z,180.60
2023-08-10T04:04:28.397Z,180.99
2023-08-10T04:05:23.519Z,184.80
2023-08-10T04:06:18.568Z,180.99
2023-08-10T04:07:13.661Z,176.96
2023-08-10T04:08:08.761Z,172.57
2023-08-10T04:09:03.747Z,172.21
2023-08-10T04:09:58.746Z,170.98
2023-08-10T04:10:53.924Z,168.90
2023-08-10T04:11:48.990Z,167.54
2023-08-10T04:12:44.005Z,166.71
2023-08-10T04:13:39.008Z,168.73
2023-08-10T04:14:34.080Z,169.42
2023-08-10T04:15:29.323Z,169.24
2023-08-10T04:16:24.782Z,165.55
2023-08-10T04:17:20.046Z,165.22
2023-08-10T04:18:15.215Z,163.44
2023-08-10T04:19:10.393Z,166.38
2023-08-10T04:20:05.288Z,166.88
2023-08-10T04:21:00.260Z,167.54
2023-08-10T04:21:55.298Z,168.73
2023-08-10T04:22:50.266Z,169.24
2023-08-10T04:23:45.518Z,169.93
2023-08-10T04:24:40.438Z,171.51
2023-08-10T04:25:35.483Z,172.93
2023-08-10T04:26:30.486Z,173.47
2023-08-10T04:27:27.755Z,173.65
2023-08-10T04:28:20.628Z,172.21
2023-08-10T04:29:15.947Z,170.63
2023-08-10T04:30:10.809Z,169.42
2023-08-10T04:31:06.028Z,168.39
2023-08-10T04:32:01.037Z,167.04
2023-08-10T04:32:56.080Z,167.04
2023-08-10T04:33:51.073Z,167.04
2023-08-10T04:34:46.239Z,166.21
2023-08-10T04:35:41.284Z,164.90
2023-08-10T04:36:36.307Z,164.41
2023-08-10T04:37:31.305Z,165.22
2023-08-10T04:38:26.730Z,166.88
2023-08-10T04:39:22.037Z,167.88
2023-08-10T04:40:17.949Z,168.56
2023-08-10T04:41:12.687Z,168.56
2023-08-10T04:42:08.153Z,169.93
2023-08-10T04:43:03.485Z,169.76
2023-08-10T04:43:58.984Z,170.98
2023-08-10T04:44:54.319Z,169.76
2023-08-10T04:45:49.879Z,169.07
2023-08-10T04:46:45.163Z,167.88
2023-08-10T04:47:40.714Z,165.22
2023-08-10T04:48:36.053Z,159.38
2023-08-10T04:49:31.680Z,153.66
2023-08-10T04:50:26.586Z,149.13
2023-08-10T04:51:21.654Z,150.20
2023-08-10T04:52:16.705Z,151.98
2023-08-10T04:53:11.789Z,153.24
2023-08-10T04:54:06.850Z,153.38
2023-08-10T04:55:01.930Z,154.37
2023-08-10T04:55:57.002Z,155.96
2023-08-10T04:56:52.072Z,156.25
2023-08-10T04:57:47.133Z,155.67
2023-08-10T04:58:42.224Z,154.80
2023-08-10T04:59:37.349Z,155.96
2023-08-10T05:00:32.266Z,156.54
2023-08-10T05:01:27.339Z,156.40
2023-08-10T05:02:23.747Z,156.54
2023-08-10T05:03:19.499Z,151.84
2023-08-10T05:04:14.911Z,149.26
2023-08-10T05:05:10.259Z,148.33
2023-08-10T05:06:05.487Z,147.81
2023-08-10T05:07:00.944Z,147.94
2023-08-10T05:07:56.395Z,150.20
2023-08-10T05:08:51.688Z,149.53
2023-08-10T05:09:56.179Z,149.26
2023-08-10T05:10:43.450Z,147.42
2023-08-10T05:11:37.820Z,148.33
2023-08-10T05:12:34.487Z,147.42
2023-08-10T05:13:30.023Z,145.87
2023-08-10T05:14:25.162Z,138.83
2023-08-10T05:15:20.664Z,134.14
2023-08-10T05:16:16.177Z,133.71
2023-08-10T05:17:11.628Z,133.39
2023-08-10T05:18:07.139Z,132.76
2023-08-10T05:19:02.229Z,128.37
2023-08-10T05:19:57.269Z,129.06
2023-08-10T05:20:52.384Z,129.86
2023-08-10T05:21:47.437Z,128.96
2023-08-10T05:22:48.217Z,125.09
2023-08-10T05:23:43.743Z,126.13
2023-08-10T05:24:39.060Z,124.16
2023-08-10T05:25:34.450Z,124.35
2023-08-10T05:26:29.974Z,122.34
2023-08-10T05:27:25.482Z,121.10
2023-08-10T05:28:21.087Z,117.68
2023-08-10T05:29:16.445Z,119.37
2023-08-10T05:30:11.879Z,119.20
2023-08-10T05:31:07.232Z,118.77
2023-08-10T05:32:03.076Z,118.94
2023-08-10T05:32:58.389Z,119.88
2023-08-10T05:33:54.114Z,118.52
2023-08-10T05:36:14.770Z,106.15
2023-08-10T05:37:10.730Z,106.22
2023-08-10T05:38:05.599Z,108.08
2023-08-10T05:39:00.848Z,109.64
2023-08-10T05:39:56.360Z,113.75
2023-08-10T05:40:51.860Z,115.17
2023-08-10T05:41:47.421Z,115.17
2023-08-10T05:42:42.944Z,117.35
2023-08-10T05:43:38.202Z,116.45
2023-08-10T05:44:33.609Z,118.02
2023-08-10T05:45:29.292Z,117.93
2023-08-10T05:46:24.646Z,116.86
2023-08-10T05:47:20.071Z,116.86
2023-08-10T05:48:15.618Z,119.71
2023-08-10T05:49:10.869Z,122.97
2023-08-10T05:50:06.259Z,120.84
2023-08-10T05:51:01.790Z,119.71
2023-08-10T05:51:57.291Z,122.43
2023-08-10T05:52:52.752Z,123.25
2023-08-10T05:53:48.099Z,126.04
2023-08-10T05:54:43.749Z,124.25
2023-08-10T05:55:39.122Z,124.25
2023-08-10T05:56:34.620Z,122.70
2023-08-10T05:57:30.107Z,120.49
2023-08-10T05:58:25.724Z,119.28
2023-08-10T05:59:20.936Z,123.15
2023-08-10T06:00:16.490Z,125.38
2023-08-10T06:01:11.886Z,128.56
2023-08-10T06:02:07.523Z,128.17
2023-08-10T06:03:02.864Z,128.46
2023-08-10T06:03:58.413Z,129.36
2023-08-10T06:04:53.628Z,129.06
2023-08-10T06:05:49.276Z,124.35
2023-08-10T06:06:44.655Z,116.61
2023-08-10T06:07:40.237Z,111.47
2023-08-10T06:08:35.718Z,110.81
2023-08-10T06:09:31.434Z,110.51
2023-08-10T06:10:26.674Z,113.52
2023-08-10T06:11:30.955Z,114.46
2023-08-10T06:12:18.754Z,118.94
2023-08-10T06:13:13.204Z,123.61
2023-08-10T06:14:08.768Z,129.16
2023-08-10T06:15:04.057Z,133.18
2023-08-10T06:15:59.423Z,134.04
2023-08-10T06:16:54.837Z,131.92
2023-08-10T06:17:50.215Z,132.76
2023-08-10T06:18:45.598Z,136.67
2023-08-10T06:19:41.010Z,142.14
2023-08-10T06:20:36.381Z,144.11
2023-08-10T06:21:31.754Z,147.16
2023-08-10T06:22:27.187Z,151.29
2023-08-10T06:23:22.542Z,154.09
2023-08-10T06:24:18.277Z,153.94
2023-08-10T06:25:13.794Z,150.74
2023-08-10T06:26:09.168Z,154.51
2023-08-10T06:27:04.659Z,158.63
2023-08-10T06:28:00.099Z,164.57
2023-08-10T06:28:55.449Z,169.76
2023-08-10T06:29:51.161Z,169.07
2023-08-10T06:30:46.562Z,170.80
2023-08-10T06:31:42.139Z,172.75
2023-08-10T06:32:37.609Z,172.39
2023-08-10T06:33:32.966Z,175.66
2023-08-10T06:34:28.362Z,179.63
2023-08-10T06:35:24.025Z,181.19
2023-08-10T06:36:19.410Z,181.58
2023-08-10T06:37:14.781Z,178.86
2023-08-10T06:38:10.258Z,176.59
2023-08-10T06:39:05.880Z,171.51
2023-08-10T06:40:01.080Z,167.54
2023-08-10T06:40:56.480Z,165.55
2023-08-10T06:41:51.871Z,156.69
2023-08-10T06:42:47.333Z,145.87
2023-08-10T06:43:42.706Z,139.06
2023-08-10T06:44:38.394Z,137.69
2023-08-10T06:45:33.743Z,129.06
2023-08-10T06:46:29.212Z,123.06
2023-08-10T06:47:24.563Z,127.29
2023-08-10T06:48:20.071Z,132.55
2023-08-10T06:49:15.753Z,135.01
2023-08-10T06:50:10.999Z,135.89
2023-08-10T06:51:06.357Z,134.04
2023-08-10T06:52:01.770Z,137.69
2023-08-10T06:52:57.111Z,140.82
2023-08-10T06:53:52.768Z,139.76
2023-08-10T06:54:48.321Z,133.61
2023-08-10T06:55:43.601Z,132.34
2023-08-10T06:56:39.146Z,130.47
2023-08-10T06:57:34.602Z,125.75
2023-08-10T06:59:25.934Z,104.56
2023-08-10T07:01:16.509Z,105.75
2023-08-10T07:02:12.698Z,111.32
2023-08-10T07:03:07.575Z,118.86
2023-08-10T07:04:02.988Z,128.66
2023-08-10T07:04:58.638Z,134.47
2023-08-10T07:05:53.880Z,132.13
2023-08-10T07:06:49.598Z,129.06
2023-08-10T07:07:45.020Z,128.07
2023-08-10T07:08:40.615Z,125.66
2023-08-10T07:09:36.147Z,125.00
2023-08-10T07:10:31.665Z,125.38
2023-08-10T07:11:27.086Z,114.77
2023-08-10T07:12:22.785Z,116.29
2023-08-10T07:13:18.293Z,117.43
2023-08-10T07:14:13.749Z,121.36
2023-08-10T07:15:09.323Z,127.39
2023-08-10T07:16:04.654Z,130.78
2023-08-10T07:17:00.075Z,133.82
2023-08-10T07:17:55.656Z,139.18
2023-08-10T07:18:50.931Z,140.23
2023-08-10T07:19:46.499Z,138.14
2023-08-10T07:20:41.952Z,138.60
2023-08-10T07:21:37.287Z,142.63
2023-08-10T07:22:39.304Z,138.03
2023-08-10T07:23:29.199Z,119.97
2023-08-10T07:24:23.633Z,99.33
2023-08-10T07:25:19.187Z,92.57
2023-08-10T07:26:14.573Z,90.27
2023-08-10T07:27:10.574Z,92.06
2023-08-10T07:28:05.614Z,94.25
2023-08-10T07:29:01.059Z,94.44
2023-08-10T07:29:57.864Z,94.49
2023-08-10T07:30:53.331Z,96.96
2023-08-10T07:31:48.834Z,97.82
2023-08-10T07:32:44.296Z,107.18
2023-08-10T07:33:39.756Z,118.27
2023-08-10T07:34:34.789Z,125.94
2023-08-10T07:35:29.878Z,131.71
2023-08-10T07:36:24.960Z,132.34
2023-08-10T07:37:20.004Z,123.70
2023-08-10T07:38:19.698Z,128.17
2023-08-10T07:39:15.318Z,131.60
2023-08-10T07:40:10.627Z,136.34
2023-08-10T07:41:06.443Z,140.59
2023-08-10T07:42:01.896Z,138.60
2023-08-10T07:42:57.369Z,128.27
2023-08-10T07:43:53.923Z,121.10
2023-08-10T07:44:49.419Z,125.09
2023-08-10T07:45:45.181Z,135.67
2023-08-10T07:46:40.737Z,138.72
2023-08-10T07:47:36.170Z,139.06
2023-08-10T07:48:32.041Z,139.64
2023-08-10T07:49:27.462Z,131.19
2023-08-10T07:50:23.237Z,121.90
2023-08-10T07:51:18.857Z,116.13
2023-08-10T07:52:14.176Z,119.79
2023-08-10T07:53:10.041Z,131.09
2023-08-10T07:54:05.627Z,141.66
2023-08-10T07:55:01.034Z,146.64
2023-08-10T07:55:57.572Z,146.90
2023-08-10T07:56:52.879Z,148.20
2023-08-10T07:57:48.755Z,152.26
2023-08-10T07:58:44.185Z,154.23
2023-08-10T07:59:39.770Z,158.63
2023-08-10T08:00:35.481Z,161.08
2023-08-10T08:01:31.222Z,159.99
2023-08-10T08:02:26.960Z,163.44
2023-08-10T08:03:22.338Z,170.63
2023-08-10T08:04:17.693Z,169.93
2023-08-10T08:05:13.491Z,163.92
2023-08-10T08:06:08.990Z,153.94
2023-08-10T08:07:04.417Z,153.10
2023-08-10T08:08:00.741Z,160.61
2023-08-10T08:08:56.215Z,167.21
2023-08-10T08:09:52.061Z,159.23
2023-08-10T08:10:47.609Z,144.48
2023-08-10T08:11:43.194Z,151.29
2023-08-10T08:12:38.822Z,158.78
2023-08-10T08:13:34.239Z,156.69
2023-08-10T08:14:30.071Z,162.01
2023-08-10T08:15:25.389Z,159.08
2023-08-10T08:16:20.886Z,149.93
2023-08-10T08:17:16.560Z,139.76
2023-08-10T08:18:12.150Z,147.68
2023-08-10T08:19:07.574Z,144.86
2023-08-10T08:20:03.826Z,156.84
2023-08-10T08:20:59.230Z,162.96
2023-08-10T08:21:55.103Z,166.38
2023-08-10T08:22:50.531Z,169.42
2023-08-10T08:23:46.113Z,167.21
2023-08-10T08:24:41.827Z,169.93
2023-08-10T08:25:39.326Z,171.86
2023-08-10T08:26:33.257Z,169.07
2023-08-10T08:27:28.658Z,172.93
2023-08-10T08:28:23.977Z,171.86
2023-08-10T08:29:19.901Z,146.77
2023-08-10T08:30:15.377Z,134.36
2023-08-10T08:31:10.764Z,119.03
2023-08-10T08:32:07.248Z,126.23
2023-08-10T08:33:02.702Z,135.67
2023-08-10T08:33:58.414Z,138.60
2023-08-10T08:34:53.938Z,139.18
2023-08-10T08:35:49.373Z,150.07
2023-08-10T08:36:45.322Z,157.58
2023-08-10T08:37:40.659Z,163.92
2023-08-10T08:38:36.136Z,157.28
2023-08-10T08:39:31.514Z,135.45
2023-08-10T08:40:26.986Z,144.36
2023-08-10T08:41:23.966Z,156.40
2023-08-10T08:42:19.196Z,157.13
2023-08-10T08:43:14.675Z,156.25
2023-08-10T08:44:12.873Z,155.23
2023-08-10T08:45:08.241Z,158.32
2023-08-10T08:46:04.207Z,150.20
2023-08-10T08:46:59.470Z,131.92
2023-08-10T08:47:54.979Z,121.19
2023-08-10T08:48:50.461Z,115.09
2023-08-10T08:49:46.679Z,111.70
2023-08-10T08:50:42.183Z,106.15
2023-08-10T08:51:38.103Z,106.70
2023-08-10T08:52:33.601Z,111.25
2023-08-10T08:53:29.231Z,123.43
2023-08-10T08:54:25.021Z,124.44
2023-08-10T08:55:20.494Z,116.53
2023-08-10T08:56:16.381Z,122.70
2023-08-10T08:57:12.198Z,121.99
2023-08-10T08:58:07.238Z,126.23
2023-08-10T08:59:03.171Z,125.47
2023-08-10T08:59:58.523Z,140.59
2023-08-10T09:00:54.000Z,156.99
2023-08-10T09:01:50.856Z,169.59
2023-08-10T09:02:45.995Z,183.58
2023-08-10T09:03:41.866Z,193.50
2023-08-10T09:04:37.276Z,190.03
2023-08-10T09:05:32.722Z,195.00
2023-08-10T09:06:28.399Z,213.11
2023-08-10T09:07:24.171Z,214.36
2023-08-10T09:08:19.684Z,212.15
2023-08-10T09:09:15.029Z,230.15
2023-08-10T09:10:10.401Z,247.51
2023-08-10T09:11:06.151Z,243.83
2023-08-10T09:12:01.654Z,238.00
2023-08-10T09:12:57.005Z,226.81
2023-08-10T09:13:53.491Z,227.28
2023-08-10T09:14:48.944Z,230.48
2023-08-10T09:15:45.005Z,242.39
2023-08-10T09:16:40.487Z,253.44
2023-08-10T09:17:36.318Z,248.26
2023-08-10T09:18:31.617Z,248.83
2023-08-10T09:19:27.198Z,239.91
2023-08-10T09:20:23.084Z,255.61
2023-08-10T09:21:18.363Z,242.21
2023-08-10T09:22:13.654Z,250.73
2023-08-10T09:23:09.900Z,251.69
2023-08-10T09:24:05.409Z,246.95
2023-08-10T09:25:00.609Z,242.21
2023-08-10T09:25:57.348Z,260.69
2023-08-10T09:26:52.837Z,264.68
2023-08-10T09:27:48.718Z,275.58
2023-08-10T09:28:44.343Z,290.71
2023-08-10T09:29:39.692Z,301.12
2023-08-10T09:30:35.503Z,300.57
2023-08-10T09:31:30.859Z,269.47
2023-08-10T09:32:26.195Z,282.46
2023-08-10T09:33:22.064Z,305.32
2023-08-10T09:34:17.999Z,315.60
2023-08-10T09:35:13.446Z,298.11
2023-08-10T09:36:08.855Z,305.61
2023-08-10T09:37:04.979Z,297.03
2023-08-10T09:38:00.101Z,297.30
2023-08-10T09:38:55.887Z,301.40
2023-08-10T09:39:51.060Z,308.48
2023-08-10T09:40:47.630Z,294.63
2023-08-10T09:41:43.252Z,265.33
2023-08-10T09:42:39.125Z,256.81
2023-08-10T09:43:34.644Z,256.61
2023-08-10T09:44:30.137Z,277.21
2023-08-10T09:45:25.920Z,304.47
2023-08-10T09:46:21.421Z,320.22
2023-08-10T09:47:16.968Z,330.21
2023-08-10T09:48:12.212Z,345.51
2023-08-10T09:49:07.690Z,346.61
2023-08-10T09:50:04.704Z,345.88
2023-08-10T09:50:59.878Z,343.70
2023-08-10T09:51:55.351Z,339.08
2023-08-10T09:52:53.633Z,319.60
2023-08-10T09:53:48.945Z,304.47
2023-08-10T09:54:44.415Z,327.58
2023-08-10T09:55:40.525Z,346.61
2023-08-10T09:56:35.602Z,358.34
2023-08-10T09:57:31.151Z,357.17
2023-08-10T09:58:27.358Z,331.55
2023-08-10T09:59:22.815Z,315.60
2023-08-10T10:00:18.708Z,319.29
2023-08-10T10:01:16.588Z,326.60
2023-08-10T10:02:09.830Z,318.05
2023-08-10T10:03:04.929Z,324.66
2023-08-10T10:04:00.077Z,300.02
2023-08-10T10:04:59.063Z,314.69
2023-08-10T10:05:54.540Z,341.56
2023-08-10T10:06:50.177Z,360.31
2023-08-10T10:07:45.701Z,363.91
2023-08-10T10:08:41.157Z,318.05
2023-08-10T10:09:36.538Z,293.84
2023-08-10T10:10:32.997Z,298.11
2023-08-10T10:11:28.671Z,312.30
2023-08-10T10:12:24.146Z,323.38
2023-08-10T10:13:19.523Z,322.11
2023-08-10T10:14:14.974Z,321.48
2023-08-10T10:15:10.768Z,376.86
2023-08-10T10:16:06.247Z,419.92
2023-08-10T10:17:02.442Z,440.15
2023-08-10T10:17:57.605Z,431.89
2023-08-10T10:18:52.990Z,408.60
2023-08-10T10:19:48.874Z,401.71
2023-08-10T10:20:44.385Z,408.10
2023-08-10T10:21:39.832Z,411.37
2023-08-10T10:22:36.485Z,421.78
2023-08-10T10:23:31.602Z,464.37
2023-08-10T10:24:27.671Z,491.04
2023-08-10T10:25:23.095Z,472.26
2023-08-10T10:26:18.645Z,451.48
2023-08-10T10:27:14.377Z,430.49
2023-08-10T10:28:10.176Z,395.28
2023-08-10T10:29:05.578Z,373.86
2023-08-10T10:30:01.054Z,349.93
2023-08-10T10:30:56.451Z,369.23
2023-08-10T10:31:52.250Z,395.04
2023-08-10T10:32:47.808Z,415.21
2023-08-10T10:33:43.595Z,431.89
2023-08-10T10:34:39.472Z,430.49
2023-08-10T10:35:35.098Z,421.78
2023-08-10T10:36:30.881Z,438.99
2023-08-10T10:37:26.344Z,439.57
2023-08-10T10:38:21.749Z,398.11
2023-08-10T10:39:17.555Z,392.95
2023-08-10T10:40:16.938Z,393.64
2023-08-10T10:41:12.433Z,394.11
2023-08-10T10:42:07.994Z,400.98
2023-08-10T10:43:03.940Z,419.66
2023-08-10T10:43:59.384Z,431.89
2023-08-10T10:44:54.918Z,438.99
2023-08-10T10:45:51.123Z,437.27
2023-08-10T10:46:46.622Z,464.69
2023-08-10T10:47:42.379Z,487.45
2023-08-10T10:48:37.886Z,462.44
2023-08-10T10:49:33.646Z,440.45
2023-08-10T10:50:29.168Z,452.70
2023-08-10T10:51:24.702Z,503.27
2023-08-10T10:52:20.643Z,504.79
2023-08-10T10:53:15.873Z,479.74
2023-08-10T10:54:11.231Z,523.83
2023-08-10T10:55:07.210Z,555.69
2023-08-10T10:56:02.673Z,547.48
2023-08-10T10:56:58.138Z,506.71
2023-08-10T10:57:53.788Z,509.81
2023-08-10T10:58:49.146Z,533.47
2023-08-10T10:59:48.344Z,556.16
2023-08-10T11:00:45.472Z,551.10
2023-08-10T11:01:39.171Z,562.25
2023-08-10T11:02:34.837Z,578.35
2023-08-10T11:03:31.023Z,578.35
2023-08-10T11:04:26.462Z,590.64
2023-08-10T11:05:22.130Z,596.45
2023-08-10T11:06:17.603Z,605.66
2023-08-10T11:07:13.239Z,610.65
2023-08-10T11:08:08.720Z,625.55
2023-08-10T11:09:04.214Z,651.84
2023-08-10T11:09:59.597Z,693.17
2023-08-10T11:10:55.064Z,677.68
2023-08-10T11:11:49.487Z,644.28
2023-08-10T11:12:44.579Z,618.01
2023-08-10T11:13:39.535Z,685.34
2023-08-10T11:14:37.189Z,737.65
2023-08-10T11:15:32.572Z,722.46
2023-08-10T11:16:27.306Z,720.90
2023-08-10T11:17:22.356Z,740.10
2023-08-10T11:18:17.439Z,769.90
2023-08-10T11:19:12.492Z,790.88
2023-08-10T11:20:07.551Z,814.02
2023-08-10T11:21:02.972Z,828.68
2023-08-10T11:21:57.715Z,822.55
2023-08-10T11:22:52.696Z,824.07
2023-08-10T11:23:49.018Z,776.16
2023-08-10T11:24:44.448Z,831.78
2023-08-10T11:25:40.346Z,850.86
2023-08-10T11:26:36.130Z,892.38
2023-08-10T11:27:31.315Z,854.67
2023-08-10T11:28:27.137Z,877.14
2023-08-10T11:29:22.556Z,934.87
2023-08-10T11:30:18.462Z,951.53
2023-08-10T11:31:14.214Z,919.42
2023-08-10T11:32:09.616Z,902.64
2023-08-10T11:33:05.334Z,832.81
2023-08-10T11:34:00.823Z,858.52
2023-08-10T11:36:20.093Z,1039.72